Weather reports worldwide

Advertisment
Coventry/Coundon, United Kingdom (99070): temperature & dewpoint: 15.01.2021 05:00:00 - 21.01.2021 05:00:00 (GMT)Coventry/Coundon, United Kingdom (99070): temperature -20cm & temperature -100cm: 15.01.2021 05:00:00 - 21.01.2021 05:00:00 (GMT)Coventry/Coundon, United Kingdom (99070): wind speed & gusts: 15.01.2021 05:00:00 - 21.01.2021 05:00:00 (GMT)Coventry/Coundon, United Kingdom (99070): wind direction: 15.01.2021 05:00:00 - 21.01.2021 05:00:00 (GMT)Coventry/Coundon, United Kingdom (99070): sunshine duration: 15.01.2021 05:00:00 - 21.01.2021 05:00:00 (GMT)Coventry/Coundon, United Kingdom (99070): precipitation: 15.01.2021 05:00:00 - 21.01.2021 05:00:00 (GMT)
Date & Time tt [°C] td [°C] tt -20cm [°C] tt -100cm [°C] ff [km/h] ff [kn] fx [km/h] fx [kn] dd sd [min] rr [mm]
21.01.2021 05:00:00 - - - - - - - - - - -
21.01.2021 04:00:00 2,8 1,2 - - 16 9 - - WSW 0 0,0
21.01.2021 03:00:00 2,6 0,9 - - 22 12 50 27 WSW 0 0,0
21.01.2021 02:00:00 2,6 1,3 - - 22 12 - - WSW 0 0,0
21.01.2021 01:00:00 1,9 1,4 - - 18 10 46 25 W 0 0,4
21.01.2021 00:00:00 1,6 1,2 - - 15 8 - - W - 0,4
20.01.2021 23:00:00 1,5 0,5 - - 21 11 - - W 0 6,2
20.01.2021 22:00:00 9,2 8,3 - - 28 15 55 30 S 0 1,0
20.01.2021 21:00:00 9,2 8,2 - - 22 12 50 27 S 0 0,2
20.01.2021 20:00:00 9,5 8,5 - - 26 14 52 28 S 0 0,4
20.01.2021 19:00:00 9,7 8,5 - - 22 12 48 26 S 0 0,0
20.01.2021 18:00:00 9,5 8,8 - - 21 11 - - S 0 0,2
20.01.2021 17:00:00 9,5 8,7 - - 18 10 - - S 0 0,4
20.01.2021 16:00:00 9,6 8,7 - - 18 10 - - S 0 0,4
20.01.2021 15:00:00 9,9 8,8 - - 18 10 - - S 0 0,0
20.01.2021 14:00:00 9,8 9,0 - - 18 10 - - S 0 0,4
20.01.2021 13:00:00 9,8 9,0 - - 16 9 - - S 0 1,2
20.01.2021 12:00:00 10,2 8,9 - - 21 11 46 25 S 0 0,0
20.01.2021 11:00:00 10,1 9,5 - - 16 9 - - S 0 0,4
20.01.2021 10:00:00 10,0 9,3 - - 15 8 - - S 0 0,8
20.01.2021 09:00:00 10,3 9,5 6,2 6,9 16 9 - - S 0 0,4
20.01.2021 08:00:00 10,7 10,0 - - 13 7 - - SSW 0 0,8
20.01.2021 07:00:00 10,9 10,2 - - 18 10 - - SSW 0 1,2
20.01.2021 06:00:00 10,6 10,1 - - 16 9 - - SSW 0 1,0
20.01.2021 05:00:00 10,9 10,2 - - 16 9 - - SSW 0 0,2
20.01.2021 04:00:00 10,5 10,2 - - 15 8 - - SSW 0 0,6
20.01.2021 03:00:00 10,8 10,1 - - 22 12 - - SSW 0 1,2
20.01.2021 02:00:00 10,8 10,0 - - 16 9 - - SSW 0 0,6
20.01.2021 01:00:00 11,0 9,8 - - 18 10 - - SSW 0 0,2
20.01.2021 00:00:00 11,2 9,4 - - 21 11 - - SSW - 0,0
19.01.2021 23:00:00 10,8 9,3 - - 16 9 - - SSW 0 0,0
19.01.2021 22:00:00 10,5 9,3 - - 21 11 - - SSW 0 0,6
19.01.2021 21:00:00 10,5 8,7 - - 21 11 - - SSW 0 0,0
19.01.2021 20:00:00 10,2 8,5 - - 21 11 50 27 SSW 0 0,0
19.01.2021 19:00:00 9,8 8,5 - - 22 12 - - SSW 0 0,0
19.01.2021 18:00:00 9,4 8,4 - - 21 11 - - SSW 0 0,6
19.01.2021 17:00:00 9,4 8,3 - - 18 10 - - SSW 0 0,6
19.01.2021 16:00:00 9,8 7,9 - - 18 10 - - SW 0 0,0
19.01.2021 15:00:00 9,5 7,7 - - 18 10 46 25 SSW 0 0,0
19.01.2021 14:00:00 9,5 7,4 - - 22 12 46 25 SW 0 0,0
19.01.2021 13:00:00 10,1 7,1 - - 18 10 - - SW 0 0,0
19.01.2021 12:00:00 10,7 7,6 - - 16 9 - - SW 0 0,0
19.01.2021 11:00:00 10,8 8,2 - - 16 9 - - SW 0 0,0
19.01.2021 10:00:00 10,7 8,1 - - 15 8 55 30 SW 0 0,0
19.01.2021 09:00:00 10,5 8,6 5,4 6,9 16 9 - - WSW 0 0,0
19.01.2021 08:00:00 10,7 8,6 - - 15 8 46 25 WSW 0 0,0
19.01.2021 07:00:00 10,9 8,7 - - 21 11 46 25 WSW 0 0,0
19.01.2021 06:00:00 10,2 8,9 - - 16 9 - - WSW 0 0,0
19.01.2021 05:00:00 9,9 9,1 - - 15 8 - - WSW 0 0,2
19.01.2021 04:00:00 9,9 9,2 - - 16 9 - - SW 0 0,4
19.01.2021 03:00:00 9,9 9,2 - - 16 9 - - SW 0 0,6
19.01.2021 02:00:00 9,3 8,9 - - 16 9 - - SSW 0 0,8
19.01.2021 01:00:00 9,3 8,8 - - 15 8 - - SW 0 0,8
19.01.2021 00:00:00 8,4 8,2 - - 9 5 - - SSW - 0,0
18.01.2021 23:00:00 8,0 7,9 - - 11 6 - - SSW 0 0,0
18.01.2021 22:00:00 7,2 7,0 - - 9 5 - - SSW 0 1,4
18.01.2021 21:00:00 7,1 6,5 - - 11 6 - - S 0 1,0
18.01.2021 20:00:00 7,0 5,8 - - 8 4 - - S 0 0,0
18.01.2021 19:00:00 6,9 5,4 - - 13 7 - - SSW 0 0,0
18.01.2021 18:00:00 6,4 4,9 - - 13 7 - - SSW 0 0,0
18.01.2021 17:00:00 6,1 4,7 - - 13 7 - - SSW 0 0,0
18.01.2021 16:00:00 5,8 4,5 - - 15 8 - - SSW 0 0,0
18.01.2021 15:00:00 5,8 3,9 - - 15 8 - - SSW 0 0,0
18.01.2021 14:00:00 5,9 3,2 - - 11 6 - - SW 0 0,0
18.01.2021 13:00:00 5,7 3,0 - - 13 7 - - WSW 0 0,0
18.01.2021 12:00:00 5,6 2,9 - - 11 6 - - WSW 0 0,0
18.01.2021 11:00:00 4,4 2,7 - - 11 6 - - WSW 0 0,0
18.01.2021 10:00:00 3,8 2,6 - - 9 5 - - SW 0 0,0
18.01.2021 09:00:00 3,4 2,3 5,0 6,9 9 5 - - SW 0 0,0
18.01.2021 08:00:00 3,2 2,3 - - 11 6 - - SW 0 0,0
18.01.2021 07:00:00 3,0 2,1 - - 9 5 - - WSW 0 0,0
18.01.2021 06:00:00 2,7 2,2 - - 8 4 - - SW 0 0,0
18.01.2021 05:00:00 1,7 0,9 - - 4 2 - - SSW 0 0,0
18.01.2021 04:00:00 2,6 1,3 - - 8 4 - - SSW 0 0,0
18.01.2021 03:00:00 3,1 1,8 - - 8 4 - - SW 0 0,0
18.01.2021 02:00:00 3,9 2,4 - - 9 5 - - WSW 0 0,0
18.01.2021 01:00:00 3,8 2,4 - - 11 6 - - WSW 0 0,0
18.01.2021 00:00:00 3,5 2,2 - - 9 5 - - WSW - 0,0
17.01.2021 23:00:00 4,2 2,2 - - 11 6 - - WSW 0 0,0
17.01.2021 22:00:00 5,0 2,3 - - 9 5 - - WSW 0 0,0
17.01.2021 21:00:00 5,1 2,3 - - 11 6 - - W 0 0,0
17.01.2021 20:00:00 5,0 2,4 - - 11 6 - - W 0 0,0
17.01.2021 19:00:00 5,1 2,5 - - 9 5 - - WSW 0 0,0
17.01.2021 18:00:00 5,1 2,1 - - 5 3 - - WSW 0 0,0
17.01.2021 17:00:00 5,2 1,9 - - 4 2 - - W 0 0,0
17.01.2021 16:00:00 5,8 2,1 - - 5 3 - - W 0 0,0
17.01.2021 15:00:00 6,3 2,2 - - 9 5 - - WNW 0 0,0
17.01.2021 14:00:00 6,4 2,3 - - 13 7 - - WNW 0 0,0
17.01.2021 13:00:00 6,5 2,5 - - 11 6 - - WNW 18 0,0
17.01.2021 12:00:00 6,6 2,1 - - 16 9 - - NW 42 0,0
17.01.2021 11:00:00 6,0 2,2 - - 13 7 - - WNW 24 0,2
17.01.2021 10:00:00 5,0 2,1 - - 11 6 - - WNW 18 0,0
17.01.2021 09:00:00 4,1 1,9 5,2 6,9 11 6 - - WNW 0 0,0
17.01.2021 08:00:00 3,6 1,8 - - 8 4 - - WNW 0 0,0
17.01.2021 07:00:00 4,3 2,0 - - 13 7 - - WNW 0 0,0
17.01.2021 06:00:00 3,7 1,8 - - 8 4 - - W 0 0,0
17.01.2021 05:00:00 3,9 1,6 - - 13 7 - - NW 0 0,0
17.01.2021 04:00:00 4,7 2,3 - - 18 10 - - NW 0 0,0
17.01.2021 03:00:00 4,9 2,3 - - 11 6 - - W 0 0,0
17.01.2021 02:00:00 4,4 2,1 - - 8 4 - - W 0 0,0
17.01.2021 01:00:00 5,0 1,9 - - 9 5 - - WSW 0 0,0
17.01.2021 00:00:00 5,1 1,8 - - 11 6 - - WSW - 0,0
16.01.2021 23:00:00 5,1 2,3 - - 9 5 - - W 0 0,0
16.01.2021 22:00:00 5,0 1,8 - - 5 3 - - W 0 0,0
16.01.2021 21:00:00 6,2 2,8 - - 9 5 - - WNW 0 0,0
16.01.2021 20:00:00 6,5 4,3 - - 5 3 - - W 0 0,0
16.01.2021 19:00:00 6,9 4,1 - - 8 4 - - W 0 0,0
16.01.2021 18:00:00 7,4 4,5 - - 9 5 - - W 0 0,0
16.01.2021 17:00:00 7,7 4,7 - - 9 5 - - W 0 0,0
16.01.2021 16:00:00 7,9 4,8 - - 9 5 - - W 0 0,0
16.01.2021 15:00:00 8,2 4,7 - - 9 5 - - W 0 0,0
16.01.2021 14:00:00 8,6 4,9 - - 11 6 - - W 0 0,0
16.01.2021 13:00:00 8,9 6,1 - - 11 6 - - W 54 0,0
16.01.2021 12:00:00 7,3 7,1 - - 8 4 - - WSW 6 0,0
16.01.2021 11:00:00 5,3 5,3 - - 5 3 - - SW 0 0,2
16.01.2021 10:00:00 4,0 4,0 - - 9 5 - - SSW 0 0,4
16.01.2021 09:00:00 3,0 2,7 5,0 6,9 15 8 - - S 0 0,0
16.01.2021 08:00:00 2,3 2,0 - - 21 11 - - S 0 0,2
16.01.2021 07:00:00 1,7 1,2 - - 16 9 46 25 S 0 0,2
16.01.2021 06:00:00 1,5 1,0 - - 22 12 - - S 0 0,8
16.01.2021 05:00:00 1,4 0,9 - - 22 12 - - S 0 1,4
16.01.2021 04:00:00 2,3 1,3 - - 21 11 - - S 0 1,0
16.01.2021 03:00:00 2,9 1,5 - - 15 8 - - S 0 0,0
16.01.2021 02:00:00 1,8 1,1 - - 13 7 - - S 0 0,0
16.01.2021 01:00:00 1,1 0,6 - - 11 6 - - S 0 0,0
16.01.2021 00:00:00 0,7 0,3 - - 9 5 - - S - 0,0
15.01.2021 23:00:00 0,2 0,1 - - 9 5 - - S 0 0,0
15.01.2021 22:00:00 -0,5 -0,7 - - 8 4 - - S 0 0,0
15.01.2021 21:00:00 -0,7 -0,9 - - 5 3 - - S 0 0,0
15.01.2021 20:00:00 -0,7 -1,0 - - 5 3 - - SSE 0 0,0
15.01.2021 19:00:00 -0,4 -0,9 - - 9 5 - - SSE 0 0,0
15.01.2021 18:00:00 -0,2 -0,9 - - 9 5 - - SSE 0 0,0
15.01.2021 17:00:00 0,0 -0,8 - - 8 4 - - S 0 0,0
15.01.2021 16:00:00 0,3 -0,6 - - 5 3 - - S 0 0,0
15.01.2021 15:00:00 0,6 0,0 - - 8 4 - - S 0 0,0
15.01.2021 14:00:00 0,7 0,0 - - 5 3 - - SSE 0 0,0
15.01.2021 13:00:00 0,8 0,0 - - 2 1 - - SE 0 0,0
15.01.2021 12:00:00 1,0 0,2 - - 4 2 - - SW 0 0,0
15.01.2021 11:00:00 0,3 -0,2 - - 2 1 - - SSW 0 0,0
15.01.2021 10:00:00 -0,3 -0,8 - - 4 2 - - NNW 0 0,0
15.01.2021 09:00:00 -0,2 -0,7 5,2 6,9 4 2 - - N 0 0,0
15.01.2021 08:00:00 -0,2 -0,7 - - 5 3 - - NW 0 0,0
15.01.2021 07:00:00 0,1 -0,6 - - 8 4 - - NNE 0 0,0
15.01.2021 06:00:00 0,5 -0,2 - - 8 4 - - NNW 0 0,0
15.01.2021 05:00:00 0,5 -0,1 - - 8 4 - - N 0 0,0

tt = temperature
td = dewpoint
tt -20cm = temperature -20cm
tt -100cm = temperature -100cm
ff = wind speed
fx = gusts
dd = wind direction
sd = sunshine duration
rr = precipitation

Next stations